Time;durP1;ratioP1;P1;durP2;ratioP2;P2;SDS_P1;SDS_P2;PMS_P1;PMS_P2;Temp;Humidity;BMP_temperature;BMP_pressure;BME280_temperature;BME280_humidity;BME280_pressure;Samples;Min_cycle;Max_cycle;Signal;HPM_P1;HPM_P2
2023/01/27 00:02:12;;;;;;;1.50;1.40;;;;;;;22.12;31.68;99088.31;1906450;74;28141;-55
2023/01/27 00:05:01;;;;;;;1.15;1.15;;;;;;;22.13;31.63;99085.84;1900112;74;28083;-56
2023/01/27 00:07:50;;;;;;;1.10;1.10;;;;;;;22.17;31.61;99083.48;1898901;74;28174;-56
2023/01/27 00:10:38;;;;;;;1.20;1.10;;;;;;;22.15;31.61;99085.06;1898848;74;28194;-56
2023/01/27 00:13:27;;;;;;;1.10;1.10;;;;;;;22.17;31.62;99088.95;1906041;74;28000;-57
2023/01/27 00:16:15;;;;;;;1.25;1.05;;;;;;;22.18;31.60;99086.49;1906828;74;28247;-57
2023/01/27 00:19:04;;;;;;;1.20;1.20;;;;;;;22.22;31.57;99085.77;1859084;76;28207;-56
2023/01/27 00:24:59;;;;;;;1.27;1.10;;;;;;;22.26;31.49;99084.23;1870192;75;28139;-56
2023/01/27 00:27:48;;;;;;;0.93;0.93;;;;;;;22.27;31.47;99087.77;1859711;75;28380;-55
2023/01/27 00:30:36;;;;;;;1.05;1.05;;;;;;;22.28;31.47;99082.08;1846674;77;28195;-56
2023/01/27 00:33:25;;;;;;;1.00;1.00;;;;;;;22.30;31.45;99087.30;1840079;77;28368;-57
2023/01/27 00:36:14;;;;;;;1.20;1.20;;;;;;;22.32;31.42;99087.88;1834607;75;28215;-59
2023/01/27 00:39:03;;;;;;;1.10;1.00;;;;;;;22.32;31.41;99087.35;1824168;77;28281;-51
2023/01/27 00:41:51;;;;;;;3.25;1.15;;;;;;;22.34;31.41;99091.20;1833973;76;28387;-47
2023/01/27 00:45:47;;;;;;;1.62;1.52;;;;;;;22.34;31.42;99091.20;1851902;76;28262;-48
2023/01/27 00:47:30;;;;;;;1.60;1.50;;;;;;;22.35;31.47;99093.72;1840094;76;28199;-47
2023/01/27 00:50:18;;;;;;;1.95;1.45;;;;;;;22.35;31.51;99091.52;1827611;77;28241;-47
2023/01/27 00:53:07;;;;;;;2.00;1.90;;;;;;;22.36;31.53;99084.95;1829545;77;28191;-46
2023/01/27 00:56:02;;;;;;;4.20;2.50;;;;;;;22.36;31.57;99089.05;1828289;77;28348;-47
2023/01/27 00:58:46;;;;;;;2.45;2.25;;;;;;;22.36;31.56;99093.16;1824752;78;28332;-44
2023/01/27 01:01:35;;;;;;;3.47;2.55;;;;;;;22.35;31.60;99092.88;1831489;77;28195;-46
2023/01/27 01:04:23;;;;;;;3.98;2.83;;;;;;;22.37;31.65;99075.67;1830108;77;28339;-43
2023/01/27 01:07:11;;;;;;;2.80;2.60;;;;;;;22.39;31.65;99080.37;1902917;74;28206;-46
2023/01/27 01:10:00;;;;;;;2.57;2.37;;;;;;;22.39;31.71;99079.84;1901546;74;28145;-46
2023/01/27 01:12:48;;;;;;;2.65;2.30;;;;;;;22.39;31.75;99072.99;1897072;74;28092;-45
2023/01/27 01:15:41;;;;;;;2.87;2.65;;;;;;;22.36;31.74;99069.36;1896369;74;28155;-46
2023/01/27 01:18:29;;;;;;;2.27;2.12;;;;;;;22.39;31.79;99075.73;1905814;74;28032;-45
2023/01/27 01:21:18;;;;;;;3.55;2.85;;;;;;;22.38;31.79;99069.14;1909637;73;28095;-46
2023/01/27 01:24:07;;;;;;;4.50;3.40;;;;;;;22.41;31.75;99070.00;1907256;74;28030;-42
2023/01/27 01:26:55;;;;;;;5.92;3.60;;;;;;;22.47;31.73;99081.36;1895766;75;28207;-43
2023/01/27 01:29:44;;;;;;;6.35;3.50;;;;;;;22.48;31.79;99066.05;1895608;74;28131;-46
2023/01/27 01:32:32;;;;;;;4.97;3.60;;;;;;;22.52;31.90;99078.73;1882228;75;28159;-46
2023/01/27 01:35:23;;;;;;;3.58;3.08;;;;;;;22.51;31.91;99072.95;1895174;74;28183;-44
2023/01/27 01:38:13;;;;;;;7.08;3.60;;;;;;;22.53;31.86;99070.27;1908664;74;28186;-54
2023/01/27 01:41:01;;;;;;;4.28;3.30;;;;;;;22.54;32.33;99073.84;1905134;74;28093;-61
2023/01/27 01:43:50;;;;;;;4.08;3.33;;;;;;;22.62;32.07;99063.88;1899938;74;29085;-57
2023/01/27 01:46:39;;;;;;;5.22;2.92;;;;;;;22.68;31.97;99068.39;1900727;74;28131;-55
2023/01/27 01:49:30;;;;;;;3.98;3.02;;;;;;;22.75;31.68;99061.39;1933683;72;28027;-63
2023/01/27 01:52:20;;;;;;;4.83;3.25;;;;;;;22.73;31.54;99060.81;1887247;75;28137;-64
2023/01/27 01:55:09;;;;;;;3.57;2.97;;;;;;;22.71;31.45;99067.08;1891755;75;28516;-61
2023/01/27 01:57:58;;;;;;;6.65;2.62;;;;;;;22.74;31.42;99066.03;1880293;75;28108;-61
2023/01/27 02:00:47;;;;;;;5.60;2.65;;;;;;;22.75;31.39;99064.97;1869379;75;28141;-60
2023/01/27 02:03:38;;;;;;;2.65;2.45;;;;;;;22.74;31.35;99060.55;1884817;75;28156;-61
2023/01/27 02:06:27;;;;;;;5.17;2.40;;;;;;;22.75;31.37;99063.59;1878455;75;28238;-62
2023/01/27 02:09:20;;;;;;;4.20;2.60;;;;;;;22.75;31.37;99058.66;1871708;75;28176;-62
2023/01/27 02:12:08;;;;;;;2.45;2.20;;;;;;;22.73;31.42;99052.59;1877513;75;28236;-62
2023/01/27 02:14:59;;;;;;;2.97;2.40;;;;;;;22.72;31.38;99048.19;1874640;75;28112;-62
2023/01/27 02:17:48;;;;;;;2.70;2.50;;;;;;;22.71;31.39;99050.09;1871546;75;28117;-60
2023/01/27 02:20:43;;;;;;;3.75;2.12;;;;;;;22.70;31.36;99052.55;1890200;75;28123;-60
2023/01/27 02:23:41;;;;;;;2.02;1.90;;;;;;;22.66;31.42;99040.44;1870076;75;28176;-60
2023/01/27 02:26:33;;;;;;;2.52;2.12;;;;;;;22.63;31.49;99046.39;1877320;75;28152;-62
2023/01/27 02:29:22;;;;;;;2.17;2.00;;;;;;;22.63;31.45;99045.02;1877496;73;28500;-62
2023/01/27 02:32:22;;;;;;;2.15;1.92;;;;;;;22.61;31.50;99045.81;1902425;73;28101;-61
2023/01/27 02:35:13;;;;;;;2.40;2.20;;;;;;;22.51;31.51;99047.78;1888453;75;28104;-64
2023/01/27 02:38:03;;;;;;;2.30;2.10;;;;;;;22.33;31.69;99047.14;1879817;75;28224;-63
2023/01/27 02:40:54;;;;;;;2.00;1.90;;;;;;;22.21;31.85;99046.34;1878220;75;28054;-64
2023/01/27 02:43:44;;;;;;;2.00;1.90;;;;;;;22.16;31.94;99038.03;1874299;75;28136;-64
2023/01/27 02:46:32;;;;;;;1.87;1.60;;;;;;;22.09;32.01;99048.28;1880000;75;28149;-63
2023/01/27 02:49:22;;;;;;;1.97;1.77;;;;;;;22.06;32.07;99035.92;1889115;74;28607;-63
2023/01/27 02:52:11;;;;;;;2.92;1.90;;;;;;;22.03;32.11;99037.80;1895815;74;28311;-64
2023/01/27 02:55:00;;;;;;;2.55;1.80;;;;;;;21.99;32.16;99029.22;1893610;74;28122;-63
2023/01/27 02:57:50;;;;;;;2.00;1.80;;;;;;;21.96;32.16;99031.06;1823507;77;28283;-61
2023/01/27 03:00:47;;;;;;;1.70;1.60;;;;;;;21.93;32.21;99020.63;1830422;77;28315;-63
2023/01/27 03:03:42;;;;;;;2.95;1.90;;;;;;;21.93;32.23;99026.10;1823221;77;28628;-62
2023/01/27 03:06:26;;;;;;;2.10;1.70;;;;;;;21.92;32.26;99023.59;1848012;77;28277;-63
2023/01/27 03:09:15;;;;;;;3.27;1.67;;;;;;;21.91;32.25;99015.91;1844835;77;28407;-62
2023/01/27 03:12:21;;;;;;;1.57;1.47;;;;;;;21.86;32.28;99006.27;1848469;76;28277;-62
2023/01/27 03:18:17;;;;;;;1.60;1.50;;;;;;;21.84;32.36;99004.28;1905706;74;28304;-62
2023/01/27 03:21:07;;;;;;;2.12;1.40;;;;;;;21.80;32.37;99003.61;1899164;74;28031;-61
2023/01/27 03:23:55;;;;;;;1.52;1.42;;;;;;;21.84;32.34;98998.81;1893617;74;28065;-62
2023/01/27 03:26:44;;;;;;;1.67;1.57;;;;;;;21.82;32.32;99002.30;1842523;77;28352;-63
2023/01/27 03:32:45;;;;;;;3.37;1.60;;;;;;;21.80;32.35;98998.97;1851623;76;28237;-61
2023/01/27 03:35:48;;;;;;;1.60;1.50;;;;;;;21.78;32.34;99009.32;1854809;76;28195;-61
2023/01/27 03:47:57;;;;;;;1.60;1.50;;;;;;;21.71;32.40;99005.89;1828830;77;28278;-61
2023/01/27 03:50:51;;;;;;;1.50;1.40;;;;;;;21.72;32.43;99003.99;1830549;77;28432;-61
2023/01/27 03:53:37;;;;;;;1.70;1.40;;;;;;;21.73;32.40;99016.57;1818037;77;28314;-62
2023/01/27 03:56:26;;;;;;;1.20;1.20;;;;;;;21.74;32.37;98997.22;1810892;77;28343;-61
2023/01/27 03:59:15;;;;;;;3.10;1.40;;;;;;;21.77;32.34;99008.20;1874029;75;28090;-61
2023/01/27 04:08:17;;;;;;;1.50;1.20;;;;;;;21.71;32.27;98992.22;1866742;75;28105;-61
2023/01/27 04:14:13;;;;;;;1.67;1.40;;;;;;;21.71;32.31;98987.28;1880368;75;28178;-61
2023/01/27 04:17:07;;;;;;;1.50;1.40;;;;;;;21.68;32.33;98986.42;1858998;75;28131;-62
2023/01/27 04:19:56;;;;;;;1.52;1.42;;;;;;;21.68;32.36;98988.59;1859382;75;28155;-63
2023/01/27 04:22:44;;;;;;;1.22;1.20;;;;;;;21.67;32.36;98993.78;1851426;75;28196;-61
2023/01/27 04:25:32;;;;;;;1.50;1.40;;;;;;;21.68;32.31;98995.98;1847461;76;28157;-63
2023/01/27 04:28:22;;;;;;;1.20;1.10;;;;;;;21.67;32.33;98993.78;1809679;77;28274;-62
2023/01/27 04:31:11;;;;;;;1.22;1.20;;;;;;;21.72;32.31;98993.06;1826257;77;28454;-63
2023/01/27 04:33:59;;;;;;;1.45;1.35;;;;;;;21.70;32.31;98996.58;1810461;77;28268;-61
2023/01/27 04:36:48;;;;;;;1.25;1.20;;;;;;;21.70;32.33;98993.31;1817079;77;28334;-61
2023/01/27 04:39:37;;;;;;;1.40;1.30;;;;;;;21.70;32.32;98993.31;1809498;79;28375;-61
2023/01/27 04:42:25;;;;;;;3.08;1.40;;;;;;;21.69;32.28;98990.27;1815189;77;28781;-61
2023/01/27 04:45:14;;;;;;;1.40;1.30;;;;;;;21.70;32.29;98993.84;1811994;77;28423;-61
2023/01/27 04:48:03;;;;;;;1.50;1.40;;;;;;;21.71;32.29;98988.65;1811819;77;28259;-62
2023/01/27 04:50:52;;;;;;;1.20;1.20;;;;;;;21.69;32.31;98990.27;1825215;77;28234;-62
2023/01/27 04:53:41;;;;;;;1.30;1.20;;;;;;;21.70;32.26;98982.38;1881269;74;28094;-64
2023/01/27 04:56:36;;;;;;;1.10;1.10;;;;;;;21.69;32.33;98993.00;1882643;74;28124;-62
2023/01/27 04:59:24;;;;;;;1.20;1.20;;;;;;;21.68;32.30;98984.49;1893924;74;28102;-62
2023/01/27 05:02:12;;;;;;;1.50;1.40;;;;;;;21.66;32.34;98992.11;1889556;74;28109;-63
2023/01/27 05:05:03;;;;;;;1.20;1.10;;;;;;;21.66;32.35;98989.91;1885932;74;28125;-61
2023/01/27 05:07:50;;;;;;;1.20;1.10;;;;;;;21.66;32.35;98994.84;1910982;74;28137;-63
2023/01/27 05:10:39;;;;;;;1.35;1.25;;;;;;;21.67;32.39;98993.78;1891626;74;28152;-62
2023/01/27 05:13:27;;;;;;;1.20;1.20;;;;;;;21.67;32.34;98989.69;1900285;74;28094;-61
2023/01/27 05:16:21;;;;;;;1.00;1.00;;;;;;;21.64;32.36;98983.32;1881266;74;32033;-61
2023/01/27 05:19:10;;;;;;;1.00;1.00;;;;;;;21.65;32.40;98986.36;1900134;74;28017;-61
2023/01/27 05:21:58;;;;;;;1.12;1.12;;;;;;;21.65;32.38;98982.27;1830172;77;28205;-61
2023/01/27 05:24:47;;;;;;;1.27;1.27;;;;;;;21.65;32.40;98989.09;1883964;74;28131;-61
2023/01/27 05:27:36;;;;;;;0.98;0.98;;;;;;;21.66;32.41;98992.11;1887048;74;28218;-61
2023/01/27 05:30:24;;;;;;;1.20;1.20;;;;;;;21.65;32.43;98995.93;1885882;74;28161;-61
2023/01/27 05:33:12;;;;;;;1.10;1.10;;;;;;;21.64;32.43;98991.52;1897469;74;28056;-61
2023/01/27 05:36:03;;;;;;;1.25;1.20;;;;;;;21.65;32.43;98990.46;1911120;74;32014;-61
2023/01/27 05:38:52;;;;;;;1.40;1.30;;;;;;;21.66;32.43;98989.38;1891603;74;28083;-61
2023/01/27 05:41:40;;;;;;;1.20;1.20;;;;;;;21.64;32.44;98991.52;1902674;74;31014;-61
2023/01/27 05:44:28;;;;;;;1.30;1.20;;;;;;;21.66;32.47;98998.10;1898048;74;28009;-61
2023/01/27 05:47:16;;;;;;;1.27;1.17;;;;;;;21.64;32.44;98996.98;1885805;74;28177;-61
2023/01/27 05:50:05;;;;;;;1.00;1.00;;;;;;;21.61;32.48;98996.66;1889892;74;32916;-62
2023/01/27 05:52:53;;;;;;;1.12;1.12;;;;;;;21.63;32.48;98999.97;1873573;74;28235;-61
2023/01/27 05:55:44;;;;;;;1.02;1.00;;;;;;;21.62;32.48;98995.03;1887137;75;28161;-61
2023/01/27 05:58:32;;;;;;;1.10;1.10;;;;;;;21.61;32.46;98997.45;1862117;75;28212;-61
2023/01/27 06:01:24;;;;;;;1.00;1.00;;;;;;;21.61;32.47;98995.28;1863490;75;28172;-61
2023/01/27 06:04:12;;;;;;;1.30;1.20;;;;;;;21.64;32.48;99002.45;1858984;75;28127;-61
2023/01/27 06:07:01;;;;;;;1.00;1.00;;;;;;;21.64;32.52;99002.45;1860922;75;28171;-61
2023/01/27 06:09:49;;;;;;;1.00;1.00;;;;;;;21.62;32.51;99003.77;1871155;75;28098;-61
2023/01/27 06:12:38;;;;;;;1.30;1.20;;;;;;;21.65;32.48;98999.19;1856900;75;28139;-62
2023/01/27 06:15:26;;;;;;;0.90;0.90;;;;;;;21.59;32.51;99003.70;1887728;75;28170;-61
2023/01/27 06:18:16;;;;;;;1.00;1.00;;;;;;;21.59;32.53;99003.70;1870095;75;28620;-61
2023/01/27 06:21:06;;;;;;;1.00;1.00;;;;;;;21.61;32.51;99009.76;1859709;75;28241;-63
2023/01/27 06:23:54;;;;;;;1.40;1.05;;;;;;;21.60;32.49;99008.11;1878231;75;28175;-61
2023/01/27 06:26:43;;;;;;;1.20;1.20;;;;;;;21.65;32.53;99003.29;1880680;75;28142;-61
2023/01/27 06:29:31;;;;;;;1.10;1.10;;;;;;;21.60;32.47;99010.84;1859113;75;28037;-62
2023/01/27 06:32:20;;;;;;;0.90;0.90;;;;;;;21.61;32.45;99016.59;1882641;75;28024;-63
2023/01/27 06:35:09;;;;;;;1.07;1.07;;;;;;;21.59;32.50;99010.53;1857624;75;28102;-63
2023/01/27 06:38:01;;;;;;;1.05;1.00;;;;;;;21.57;32.54;99015.41;1870306;75;28142;-61
2023/01/27 06:40:50;;;;;;;1.10;1.10;;;;;;;21.59;32.51;99007.80;1865774;75;28246;-61
2023/01/27 06:43:38;;;;;;;1.30;1.20;;;;;;;21.58;32.54;99006.16;1894085;75;28016;-63
2023/01/27 06:46:27;;;;;;;1.12;1.10;;;;;;;21.60;32.49;99004.54;1868846;75;28166;-63
2023/01/27 06:49:15;;;;;;;1.00;1.00;;;;;;;21.55;32.52;99009.36;1870004;75;28134;-63
2023/01/27 06:52:04;;;;;;;1.00;1.00;;;;;;;21.55;32.58;99001.16;1873161;75;28214;-61
2023/01/27 06:54:52;;;;;;;1.37;1.30;;;;;;;21.55;32.58;99011.26;1870949;75;28158;-63
2023/01/27 06:57:40;;;;;;;1.40;1.30;;;;;;;21.66;32.41;99011.24;1862488;75;28212;-61
2023/01/27 07:00:29;;;;;;;2.13;1.93;;;;;;;21.81;32.16;99008.85;1899134;75;28582;-61
2023/01/27 07:03:18;;;;;;;1.60;1.50;;;;;;;21.85;31.21;99034.66;1880773;75;28207;-63
2023/01/27 07:06:07;;;;;;;1.50;1.40;;;;;;;21.86;31.20;99014.47;1870563;73;28192;-62
2023/01/27 07:08:55;;;;;;;1.80;1.40;;;;;;;21.94;31.09;99014.07;1881496;75;28062;-62
2023/01/27 07:11:44;;;;;;;1.20;1.20;;;;;;;21.96;31.35;99022.05;1871611;75;28196;-61
2023/01/27 07:14:32;;;;;;;1.50;1.40;;;;;;;21.96;31.37;99026.96;1874504;75;28125;-61
2023/01/27 07:17:21;;;;;;;1.20;1.20;;;;;;;21.97;31.37;99023.17;1870463;75;28127;-61
2023/01/27 07:20:12;;;;;;;1.55;1.25;;;;;;;21.98;31.29;99027.55;1874923;75;28118;-61
2023/01/27 07:23:03;;;;;;;1.15;1.15;;;;;;;21.97;31.32;99020.44;1877377;75;28261;-63
2023/01/27 07:25:51;;;;;;;1.22;1.22;;;;;;;21.95;31.29;99029.42;1879462;75;28213;-61
2023/01/27 07:28:39;;;;;;;1.30;1.20;;;;;;;21.90;31.34;99032.05;1882633;75;28099;-61
2023/01/27 07:31:28;;;;;;;1.10;1.10;;;;;;;21.93;31.27;99030.20;1879608;75;28040;-61
2023/01/27 07:34:16;;;;;;;1.15;1.15;;;;;;;21.93;31.32;99041.14;1883629;75;28071;-61
2023/01/27 07:37:05;;;;;;;1.37;1.27;;;;;;;21.89;31.35;99027.63;1879173;75;28210;-60
2023/01/27 07:39:53;;;;;;;1.30;1.20;;;;;;;21.85;31.38;99046.97;1887415;75;28693;-61
2023/01/27 07:42:41;;;;;;;1.07;1.07;;;;;;;21.84;31.51;99042.55;1890926;73;28962;-61
2023/01/27 07:45:31;;;;;;;1.33;1.23;;;;;;;21.87;31.54;99031.67;1879336;75;28130;-61
2023/01/27 07:48:20;;;;;;;1.00;1.00;;;;;;;21.85;31.62;99033.83;1872214;75;28240;-60
2023/01/27 07:51:13;;;;;;;6.17;1.30;;;;;;;21.85;31.70;99037.40;1872490;74;28054;-62
2023/01/27 07:54:02;;;;;;;1.45;1.25;;;;;;;21.84;31.83;99046.66;1872087;75;33077;-63
2023/01/27 07:56:50;;;;;;;3.70;1.17;;;;;;;21.88;31.87;99045.12;1873827;75;28700;-60
2023/01/27 07:59:38;;;;;;;1.92;1.32;;;;;;;21.88;31.95;99047.86;1887427;75;28130;-60
2023/01/27 08:02:27;;;;;;;1.25;1.25;;;;;;;21.88;31.95;99051.97;1885515;75;28134;-62
2023/01/27 08:05:15;;;;;;;2.12;1.20;;;;;;;21.87;31.99;99050.81;1882698;75;28077;-60
2023/01/27 08:08:04;;;;;;;1.80;1.10;;;;;;;21.87;32.07;99051.66;1881083;75;28052;-63
2023/01/27 08:10:56;;;;;;;1.10;1.10;;;;;;;21.86;32.13;99052.75;1887836;75;28157;-61
2023/01/27 08:13:45;;;;;;;1.40;1.30;;;;;;;21.88;32.12;99053.33;1868053;75;28213;-60
2023/01/27 08:16:33;;;;;;;1.05;1.05;;;;;;;21.88;32.16;99057.96;1882628;75;28124;-62
2023/01/27 08:19:21;;;;;;;0.93;0.93;;;;;;;21.88;32.23;99051.13;1877611;75;28217;-61
2023/01/27 08:22:11;;;;;;;1.10;1.10;;;;;;;21.88;32.25;99053.33;1883871;73;28046;-61
2023/01/27 08:24:59;;;;;;;1.07;1.07;;;;;;;21.93;32.20;99056.70;1906711;73;28157;-61
2023/01/27 08:27:52;;;;;;;2.45;1.00;;;;;;;21.90;32.17;99056.66;1872731;75;28165;-61
2023/01/27 08:30:41;;;;;;;1.20;1.03;;;;;;;21.93;32.20;99059.44;1887567;75;28069;-63
2023/01/27 08:33:30;;;;;;;1.05;1.05;;;;;;;21.93;32.25;99056.18;1881824;75;28141;-61
2023/01/27 08:36:20;;;;;;;1.00;1.00;;;;;;;21.89;32.30;99062.38;1888508;75;31083;-63
2023/01/27 08:39:09;;;;;;;1.15;1.15;;;;;;;21.86;32.35;99060.11;1882110;75;28246;-64
2023/01/27 08:41:58;;;;;;;1.27;1.17;;;;;;;21.88;32.30;99064.27;1879379;75;28143;-62
2023/01/27 08:44:46;;;;;;;1.27;1.20;;;;;;;21.89;32.33;99060.45;1875889;75;31982;-63
2023/01/27 08:47:34;;;;;;;1.40;1.30;;;;;;;21.89;32.33;99059.64;1883168;75;28063;-58
2023/01/27 08:50:23;;;;;;;1.27;1.27;;;;;;;21.84;32.30;99058.96;1899340;75;28085;-61
2023/01/27 08:53:11;;;;;;;1.07;1.07;;;;;;;21.81;32.36;99071.73;1873008;75;28129;-60
2023/01/27 08:56:08;;;;;;;2.40;1.17;;;;;;;21.81;32.42;99077.20;1881591;74;28197;-60
2023/01/27 08:58:57;;;;;;;4.12;1.37;;;;;;;21.80;32.45;99070.06;1896083;74;28142;-57
2023/01/27 09:01:45;;;;;;;1.42;1.32;;;;;;;21.85;32.36;99070.73;1906329;74;28179;-54
2023/01/27 09:04:40;;;;;;;1.80;1.20;;;;;;;21.83;32.34;99060.02;1880054;74;28178;-58
2023/01/27 09:07:25;;;;;;;1.00;1.00;;;;;;;21.82;32.38;99065.17;1897908;74;31996;-56
2023/01/27 09:10:15;;;;;;;0.90;0.90;;;;;;;21.84;32.34;99064.43;1897071;74;38484;-53
2023/01/27 09:13:03;;;;;;;1.07;1.00;;;;;;;21.81;32.38;99066.27;1901974;74;28102;-55
2023/01/27 09:15:52;;;;;;;0.70;0.70;;;;;;;21.85;32.31;99067.47;1888466;74;28542;-58
2023/01/27 09:18:41;;;;;;;1.17;1.17;;;;;;;21.82;32.32;99073.38;1899327;74;28065;-57
2023/01/27 09:21:30;;;;;;;1.23;1.20;;;;;;;21.83;32.55;99076.95;1877817;74;28187;-54
2023/01/27 09:24:19;;;;;;;1.32;1.20;;;;;;;21.82;33.09;99075.31;1882525;74;28152;-60
2023/01/27 09:27:07;;;;;;;1.10;1.00;;;;;;;21.79;33.37;99073.88;1887981;74;28131;-58
2023/01/27 09:29:56;;;;;;;2.50;1.25;;;;;;;21.79;33.75;99082.08;1890739;74;28062;-56
2023/01/27 09:32:45;;;;;;;1.73;1.10;;;;;;;21.79;33.84;99081.25;1888319;74;28144;-57
2023/01/27 09:35:36;;;;;;;2.70;1.10;;;;;;;21.82;33.84;99084.31;1882760;74;28243;-57
2023/01/27 09:38:27;;;;;;;1.20;1.20;;;;;;;21.83;33.87;99072.85;1883254;74;28110;-57
2023/01/27 09:41:39;;;;;;;1.20;1.10;;;;;;;21.83;33.88;99078.31;1897300;74;28226;-59
2023/01/27 09:44:48;;;;;;;2.30;1.13;;;;;;;21.82;34.13;99072.58;1892635;74;28171;-58
2023/01/27 09:47:45;;;;;;;1.35;1.22;;;;;;;21.78;34.49;99081.77;1895897;74;28087;-58
2023/01/27 09:50:36;;;;;;;1.50;1.00;;;;;;;21.76;34.50;99082.55;1907035;74;28149;-58
2023/01/27 09:53:48;;;;;;;2.77;1.10;;;;;;;21.77;34.86;99091.06;1883432;74;28197;-57
2023/01/27 09:56:45;;;;;;;1.20;1.20;;;;;;;21.77;34.86;99091.06;1885369;73;28075;-58
2023/01/27 09:59:36;;;;;;;1.20;1.10;;;;;;;21.73;34.64;99085.75;1910097;74;28089;-58
2023/01/27 10:02:39;;;;;;;2.47;1.25;;;;;;;21.73;34.50;99089.85;1880973;74;31025;-58
2023/01/27 10:05:36;;;;;;;1.17;1.17;;;;;;;21.71;34.75;99097.47;1877399;74;28248;-60
2023/01/27 10:08:36;;;;;;;1.30;1.20;;;;;;;21.69;34.58;99094.14;1891848;74;28168;-59
2023/01/27 10:11:33;;;;;;;3.80;1.20;;;;;;;21.70;34.42;99094.45;1875087;75;28206;-58
2023/01/27 10:14:56;;;;;;;1.20;1.20;;;;;;;21.71;34.56;99092.00;1897280;74;28119;-58
2023/01/27 10:18:05;;;;;;;1.20;1.20;;;;;;;21.71;34.61;99098.83;1883614;74;28287;-58
2023/01/27 10:21:27;;;;;;;1.62;1.20;;;;;;;21.66;34.64;99095.98;1821938;77;28260;-58
2023/01/27 10:24:30;;;;;;;1.17;1.10;;;;;;;21.66;34.94;99099.23;1821372;77;28117;-58
2023/01/27 10:27:23;;;;;;;1.00;1.00;;;;;;;21.64;35.06;99101.38;1841816;77;28191;-58
2023/01/27 10:30:30;;;;;;;1.22;1.15;;;;;;;21.64;34.98;99104.95;1841077;77;28267;-57
2023/01/27 10:33:20;;;;;;;1.50;1.30;;;;;;;21.65;34.93;99105.80;1826924;77;28473;-59
2023/01/27 10:36:20;;;;;;;1.10;1.10;;;;;;;21.64;34.97;99102.22;1834402;77;28700;-55
2023/01/27 10:39:23;;;;;;;1.10;1.10;;;;;;;21.66;35.00;99103.34;1842917;77;28336;-60
2023/01/27 10:42:16;;;;;;;1.20;1.07;;;;;;;21.62;34.93;99100.27;1847355;76;28322;-56
2023/01/27 10:45:16;;;;;;;1.20;1.20;;;;;;;21.65;34.81;99101.16;1887881;74;28607;-57
2023/01/27 10:48:12;;;;;;;1.10;1.10;;;;;;;21.60;34.81;99098.84;1823542;77;28242;-59
2023/01/27 10:51:06;;;;;;;1.22;1.12;;;;;;;21.59;34.85;99099.89;1835285;77;28252;-56
2023/01/27 10:54:09;;;;;;;1.10;1.10;;;;;;;21.61;34.67;99098.59;1836011;77;28262;-56
2023/01/27 10:57:00;;;;;;;1.20;1.10;;;;;;;21.63;34.72;99101.10;1842492;76;28870;-55
2023/01/27 10:59:51;;;;;;;1.12;1.12;;;;;;;21.64;34.60;99104.95;1896037;74;28120;-57
2023/01/27 11:02:44;;;;;;;1.10;1.10;;;;;;;21.66;34.67;99097.34;1841739;77;28590;-58
2023/01/27 11:05:39;;;;;;;1.37;1.27;;;;;;;21.66;34.68;99092.41;1838591;77;28267;-59
2023/01/27 11:08:31;;;;;;;1.65;1.27;;;;;;;21.63;34.78;99099.20;1845458;76;28254;-55
2023/01/27 11:14:33;;;;;;;1.30;1.30;;;;;;;21.62;34.71;99092.59;1834159;76;28405;-57
2023/01/27 11:17:36;;;;;;;1.00;1.00;;;;;;;21.58;34.68;99100.45;1847139;76;28308;-57
2023/01/27 11:20:34;;;;;;;1.07;1.07;;;;;;;21.58;34.72;99099.09;1843370;76;28403;-56
2023/01/27 11:23:31;;;;;;;1.12;1.12;;;;;;;21.54;34.77;99095.14;1833851;77;28336;-54
2023/01/27 11:26:30;;;;;;;1.22;1.22;;;;;;;21.57;34.64;99104.23;1837551;76;28269;-59
2023/01/27 11:29:25;;;;;;;1.20;1.20;;;;;;;21.57;34.54;99106.13;1845379;76;28296;-60
2023/01/27 11:32:40;;;;;;;1.17;1.17;;;;;;;21.58;34.50;99102.34;1850206;76;28226;-60
2023/01/27 11:35:28;;;;;;;1.30;1.30;;;;;;;21.57;34.44;99109.70;1852780;76;28332;-54
2023/01/27 11:38:22;;;;;;;1.20;1.20;;;;;;;21.57;34.42;99104.77;1836954;76;28292;-56
2023/01/27 11:41:11;;;;;;;1.27;1.20;;;;;;;21.53;34.45;99095.39;1843251;76;28851;-56
2023/01/27 11:44:06;;;;;;;1.32;1.30;;;;;;;21.57;34.48;99102.88;1841210;76;28360;-56
2023/01/27 11:46:55;;;;;;;1.60;1.30;;;;;;;21.57;34.42;99094.67;1839296;77;28396;-56
2023/01/27 11:49:47;;;;;;;1.25;1.17;;;;;;;21.60;34.38;99099.67;1841518;76;28375;-57
2023/01/27 11:52:36;;;;;;;1.10;1.10;;;;;;;21.58;34.40;99091.41;1838311;76;28363;-56
2023/01/27 11:55:27;;;;;;;1.40;1.30;;;;;;;21.59;34.36;99088.95;1855669;76;28270;-57
2023/01/27 11:58:27;;;;;;;1.32;1.22;;;;;;;21.60;34.34;99087.91;1887002;74;28297;-58
2023/01/27 12:01:22;;;;;;;1.60;1.50;;;;;;;21.59;34.29;99080.23;1888660;74;28069;-59
2023/01/27 12:04:20;;;;;;;2.37;1.17;;;;;;;21.56;34.18;99082.62;1892568;74;28183;-58
2023/01/27 12:07:17;;;;;;;1.35;1.30;;;;;;;21.58;34.18;99081.84;1889163;74;28134;-56
2023/01/27 12:10:15;;;;;;;1.42;1.22;;;;;;;21.54;34.10;99075.20;1892023;74;28228;-60
2023/01/27 12:13:18;;;;;;;1.25;1.22;;;;;;;21.53;34.10;99070.27;1853941;76;28307;-58
2023/01/27 12:16:06;;;;;;;1.20;1.20;;;;;;;21.53;34.08;99070.27;1857899;76;28238;-61
2023/01/27 12:18:58;;;;;;;1.32;1.22;;;;;;;21.52;33.87;99066.41;1857170;76;28225;-59
2023/01/27 12:21:49;;;;;;;1.60;1.50;;;;;;;21.52;34.13;99063.68;1853406;76;28338;-58
2023/01/27 12:24:41;;;;;;;1.10;1.10;;;;;;;21.52;34.19;99055.48;1851374;76;28319;-55
2023/01/27 12:27:33;;;;;;;1.20;1.20;;;;;;;21.53;34.28;99050.30;1847737;76;28391;-56
2023/01/27 12:30:24;;;;;;;1.10;1.10;;;;;;;21.53;34.18;99054.39;1859932;76;28292;-59
2023/01/27 12:33:16;;;;;;;1.70;1.60;;;;;;;21.53;34.12;99048.40;1852503;76;28287;-59
2023/01/27 12:36:07;;;;;;;1.33;1.30;;;;;;;21.52;34.17;99054.92;1863727;76;28339;-60
2023/01/27 12:38:58;;;;;;;1.62;1.47;;;;;;;21.51;34.10;99050.55;1843496;76;28358;-60
2023/01/27 12:41:47;;;;;;;1.10;1.10;;;;;;;21.57;34.05;99051.47;1863734;76;28314;-61
2023/01/27 12:44:44;;;;;;;1.32;1.22;;;;;;;21.60;33.90;99049.64;1853336;76;28622;-62
2023/01/27 12:47:33;;;;;;;3.10;1.30;;;;;;;21.59;33.83;99059.73;1845836;76;28374;-62
2023/01/27 12:50:24;;;;;;;1.52;1.40;;;;;;;21.54;33.92;99051.41;1870417;76;28223;-59
2023/01/27 12:53:18;;;;;;;1.50;1.40;;;;;;;21.55;33.84;99064.02;1864102;76;28511;-59
2023/01/27 12:56:21;;;;;;;1.90;1.30;;;;;;;21.54;33.74;99058.25;1853303;76;28226;-59
2023/01/27 12:59:15;;;;;;;1.50;1.40;;;;;;;21.55;33.61;99057.72;1850231;76;28457;-59
2023/01/27 13:02:16;;;;;;;1.47;1.40;;;;;;;21.55;33.53;99047.63;1819097;77;28299;-60
2023/01/27 13:05:07;;;;;;;2.10;1.00;;;;;;;21.56;33.47;99057.50;1869337;75;28261;-60
2023/01/27 13:07:55;;;;;;;1.90;1.27;;;;;;;21.59;33.40;99050.16;1869766;75;28112;-61
2023/01/27 13:10:53;;;;;;;1.20;1.20;;;;;;;21.58;33.34;99049.05;1874300;75;28152;-61
2023/01/27 13:13:50;;;;;;;1.30;1.20;;;;;;;21.60;33.27;99050.48;1887682;75;28255;-59
2023/01/27 13:16:38;;;;;;;1.60;1.20;;;;;;;21.59;33.23;99048.80;1833584;77;28178;-60
2023/01/27 13:19:36;;;;;;;1.17;1.12;;;;;;;21.60;33.18;99045.01;1873996;75;28854;-59
2023/01/27 13:22:25;;;;;;;1.20;1.10;;;;;;;21.59;33.10;99047.44;1884890;75;28004;-59
2023/01/27 13:25:23;;;;;;;1.30;1.20;;;;;;;21.60;33.08;99044.17;1881851;75;28131;-60
2023/01/27 13:28:14;;;;;;;1.50;1.40;;;;;;;21.61;33.02;99050.75;1877669;75;28137;-60
2023/01/27 13:31:08;;;;;;;1.22;1.20;;;;;;;21.62;32.96;99054.33;1890411;75;28247;-59
2023/01/27 13:33:59;;;;;;;1.30;1.30;;;;;;;21.61;32.94;99056.78;1892676;75;28023;-59
2023/01/27 13:36:51;;;;;;;1.50;1.40;;;;;;;21.61;32.91;99054.05;1871608;74;28154;-60
2023/01/27 13:40:05;;;;;;;1.23;1.23;;;;;;;21.60;32.84;99065.52;1872253;75;29567;-60
2023/01/27 13:42:57;;;;;;;3.10;1.22;;;;;;;21.60;32.80;99061.41;1833515;77;28167;-61
2023/01/27 13:46:00;;;;;;;1.40;1.30;;;;;;;21.55;32.79;99057.19;1897650;75;28099;-60
2023/01/27 13:48:54;;;;;;;1.20;1.20;;;;;;;21.57;32.73;99061.04;1898235;75;28110;-60
2023/01/27 13:51:42;;;;;;;1.40;1.30;;;;;;;21.57;32.73;99064.61;1891250;75;28012;-59
2023/01/27 13:54:32;;;;;;;1.50;1.40;;;;;;;21.57;32.69;99065.98;1889294;75;28056;-59
2023/01/27 13:57:26;;;;;;;1.40;1.30;;;;;;;21.58;32.65;99058.62;1889787;75;28011;-59
2023/01/27 14:00:22;;;;;;;1.17;1.17;;;;;;;21.60;32.61;99068.77;1884698;74;36056;-59